Time;durP1;ratioP1;P1;durP2;ratioP2;P2;SDS_P1;SDS_P2;PMS_P1;PMS_P2;Temp;Humidity;BMP_temperature;BMP_pressure;BME280_temperature;BME280_humidity;BME280_pressure;Samples;Min_cycle;Max_cycle;Signal;HPM_P1;HPM_P2
2021/04/08 00:01:58;;;;;;;9.00;2.37;;;;;;;-0.23;100.00;100471.25;5031810;28;20095;-71
2021/04/08 00:04:24;;;;;;;7.10;2.47;;;;;;;-0.20;100.00;100460.91;5034532;28;20516;-71
2021/04/08 00:06:51;;;;;;;11.60;2.70;;;;;;;-0.15;100.00;100469.69;5032116;28;20045;-71
2021/04/08 00:09:17;;;;;;;11.17;2.87;;;;;;;-0.08;100.00;100472.44;5047907;28;20432;-71
2021/04/08 00:11:43;;;;;;;13.17;2.97;;;;;;;-0.07;100.00;100473.31;5047646;28;20037;-72
2021/04/08 00:14:10;;;;;;;6.90;2.53;;;;;;;-0.07;100.00;100479.38;5031629;28;20041;-71
2021/04/08 00:16:37;;;;;;;10.83;4.20;;;;;;;-0.04;100.00;100482.00;5048431;28;20033;-71
2021/04/08 00:19:06;;;;;;;13.00;3.53;;;;;;;-0.05;100.00;100477.66;5031002;28;20064;-72
2021/04/08 00:21:32;;;;;;;12.97;3.10;;;;;;;-0.04;100.00;100479.41;5031188;28;20440;-72
2021/04/08 00:23:58;;;;;;;9.77;3.23;;;;;;;-0.06;100.00;100486.31;5014800;28;20041;-71
2021/04/08 00:26:24;;;;;;;9.30;2.90;;;;;;;-0.08;100.00;100481.94;5030479;28;20378;-71
2021/04/08 00:28:51;;;;;;;9.17;2.90;;;;;;;-0.07;100.00;100494.94;5048767;28;20052;-72
2021/04/08 00:31:17;;;;;;;14.20;4.33;;;;;;;-0.01;100.00;100489.84;5048984;28;20726;-71
2021/04/08 00:33:43;;;;;;;13.03;4.10;;;;;;;-0.03;100.00;100488.09;5031751;28;20049;-71
2021/04/08 00:36:10;;;;;;;9.03;3.40;;;;;;;-0.14;100.00;100493.06;5030853;28;20040;-71
2021/04/08 00:38:36;;;;;;;11.70;4.53;;;;;;;-0.09;100.00;100496.63;5049123;28;20082;-71
2021/04/08 00:41:02;;;;;;;11.87;3.57;;;;;;;0.05;100.00;100509.00;5029549;28;20037;-71
2021/04/08 00:43:29;;;;;;;14.43;3.90;;;;;;;0.17;100.00;100506.63;5046824;28;20044;-71
2021/04/08 00:45:56;;;;;;;9.07;2.83;;;;;;;0.24;100.00;100513.69;5013398;28;20068;-71
2021/04/08 00:48:22;;;;;;;12.50;4.13;;;;;;;0.31;100.00;100519.91;5038392;28;20041;-71
2021/04/08 00:50:48;;;;;;;11.90;3.70;;;;;;;0.28;100.00;100513.81;5048496;28;20095;-71
2021/04/08 00:53:18;;;;;;;14.73;3.20;;;;;;;0.28;100.00;100508.59;5030622;28;20055;-71
2021/04/08 00:55:47;;;;;;;13.13;4.10;;;;;;;0.36;100.00;100513.06;5030410;28;20559;-71
2021/04/08 00:58:14;;;;;;;8.77;2.77;;;;;;;0.34;100.00;100519.94;5028041;28;20056;-71
2021/04/08 01:00:42;;;;;;;9.07;4.47;;;;;;;0.35;100.00;100519.13;5029755;28;20029;-71
2021/04/08 01:03:12;;;;;;;9.10;3.80;;;;;;;0.39;100.00;100527.00;5027193;28;20045;-71
2021/04/08 01:05:38;;;;;;;10.53;3.73;;;;;;;0.44;100.00;100517.56;5045311;28;20116;-71
2021/04/08 01:08:05;;;;;;;12.23;3.67;;;;;;;0.40;100.00;100528.72;5030545;28;20041;-71
2021/04/08 01:10:32;;;;;;;6.93;2.80;;;;;;;0.39;100.00;100529.59;5046129;28;20048;-71
2021/04/08 01:13:20;;;;;;;9.70;2.87;;;;;;;0.45;100.00;100523.63;5029787;28;20037;-71
2021/04/08 01:15:46;;;;;;;7.03;3.00;;;;;;;0.44;100.00;100540.97;5031784;28;20118;-71
2021/04/08 01:18:43;;;;;;;8.57;2.40;;;;;;;0.45;100.00;100540.09;5044954;28;20143;-71
2021/04/08 01:21:11;;;;;;;11.93;3.60;;;;;;;0.50;100.00;100535.84;5029237;28;20029;-71
2021/04/08 01:24:05;;;;;;;13.30;3.40;;;;;;;0.52;100.00;100536.78;5043176;28;20045;-71
2021/04/08 01:26:59;;;;;;;11.15;3.25;;;;;;;0.60;100.00;100538.63;5026601;28;20072;-71
2021/04/08 01:29:44;;;;;;;9.83;3.23;;;;;;;0.60;100.00;100542.13;5046213;28;20032;-71
2021/04/08 01:32:10;;;;;;;9.73;3.10;;;;;;;0.66;100.00;100550.00;5030731;28;20045;-71
2021/04/08 01:34:39;;;;;;;12.13;3.37;;;;;;;0.70;100.00;100543.16;5029300;28;20045;-71
2021/04/08 01:37:08;;;;;;;6.57;2.87;;;;;;;0.69;100.00;100551.78;5045376;28;20344;-72
2021/04/08 01:39:36;;;;;;;9.63;3.13;;;;;;;0.70;100.00;100553.53;5029123;28;20040;-71
2021/04/08 01:42:03;;;;;;;11.63;3.47;;;;;;;0.77;100.00;100558.88;5029138;28;20075;-71
2021/04/08 01:44:30;;;;;;;19.40;4.50;;;;;;;0.77;100.00;100545.00;5045822;28;20045;-71
2021/04/08 01:46:59;;;;;;;8.90;3.07;;;;;;;0.82;100.00;100557.22;5028996;28;20049;-70
2021/04/08 01:49:27;;;;;;;8.50;3.00;;;;;;;0.82;100.00;100565.03;5014179;28;20041;-71
2021/04/08 01:51:57;;;;;;;11.63;2.93;;;;;;;0.87;100.00;100548.63;5029769;28;20091;-71
2021/04/08 01:54:28;;;;;;;12.07;3.10;;;;;;;0.88;100.00;100553.84;5029278;28;20051;-71
2021/04/08 01:56:57;;;;;;;9.20;3.10;;;;;;;0.86;100.00;100550.38;5043749;28;20071;-71
2021/04/08 01:59:24;;;;;;;12.90;3.37;;;;;;;0.90;100.00;100549.53;5044531;28;20037;-71
2021/04/08 02:01:51;;;;;;;8.77;3.70;;;;;;;0.93;100.00;100557.44;5029938;28;20102;-71
2021/04/08 02:04:18;;;;;;;15.37;4.00;;;;;;;0.92;100.00;100567.78;5035273;28;20060;-71
2021/04/08 02:06:45;;;;;;;8.47;3.30;;;;;;;0.98;100.00;100560.97;5011848;28;20049;-71
2021/04/08 02:09:12;;;;;;;11.53;3.60;;;;;;;0.94;100.00;100561.78;5025095;28;20690;-70
2021/04/08 02:11:39;;;;;;;11.00;3.23;;;;;;;0.92;100.00;100566.03;5044084;28;20053;-70
2021/04/08 02:14:07;;;;;;;8.80;4.50;;;;;;;0.92;100.00;100570.38;5013179;28;20126;-71
2021/04/08 02:16:34;;;;;;;10.87;3.43;;;;;;;0.87;100.00;100574.66;5044989;28;20539;-71
2021/04/08 02:19:00;;;;;;;6.53;3.20;;;;;;;0.87;100.00;100578.13;5028867;28;20048;-71
2021/04/08 02:21:27;;;;;;;11.07;3.33;;;;;;;0.91;100.00;100584.22;5045250;28;20041;-70
2021/04/08 02:23:53;;;;;;;10.50;4.37;;;;;;;1.00;100.00;100584.38;5027824;28;20055;-71
2021/04/08 02:26:19;;;;;;;19.30;4.57;;;;;;;0.92;100.00;100583.38;5028792;28;20037;-71
2021/04/08 02:28:46;;;;;;;14.53;5.23;;;;;;;0.93;100.00;100590.38;5044725;28;20203;-71
2021/04/08 02:31:12;;;;;;;13.47;3.83;;;;;;;0.92;100.00;100583.38;5028657;28;20037;-71
2021/04/08 02:33:40;;;;;;;10.03;3.33;;;;;;;0.89;100.00;100585.94;5045567;28;20094;-71
2021/04/08 02:36:07;;;;;;;11.93;3.73;;;;;;;0.91;100.00;100584.22;5029718;28;20048;-70
2021/04/08 02:38:35;;;;;;;16.77;4.97;;;;;;;0.99;100.00;100593.91;5029415;28;20037;-71
2021/04/08 02:41:04;;;;;;;10.10;3.60;;;;;;;1.00;100.00;100605.19;5027567;28;20502;-71
2021/04/08 02:43:31;;;;;;;10.03;3.80;;;;;;;1.04;100.00;100601.81;5028727;28;20102;-71
2021/04/08 02:45:57;;;;;;;7.50;3.23;;;;;;;0.99;100.00;100612.13;5026758;28;20091;-71
2021/04/08 02:48:24;;;;;;;11.57;4.10;;;;;;;1.06;100.00;100603.59;5012002;28;20146;-70
2021/04/08 02:50:56;;;;;;;11.30;3.37;;;;;;;1.01;100.00;100602.66;5046010;28;20037;-71
2021/04/08 02:53:50;;;;;;;9.27;3.80;;;;;;;1.02;100.00;100611.34;5027298;28;20041;-70
2021/04/08 02:56:31;;;;;;;10.98;3.85;;;;;;;1.01;100.00;100612.16;5041735;28;20494;-71
2021/04/08 02:59:13;;;;;;;12.83;4.03;;;;;;;1.06;100.00;100618.31;5024549;28;20053;-71
2021/04/08 03:02:02;;;;;;;13.77;6.07;;;;;;;1.08;100.00;100622.69;5044684;28;20518;-71
2021/04/08 03:04:30;;;;;;;9.20;3.43;;;;;;;1.06;100.00;100616.59;5042979;28;20033;-70
2021/04/08 03:06:57;;;;;;;11.53;4.30;;;;;;;1.06;100.00;100623.53;5028151;28;20055;-70
2021/04/08 03:09:31;;;;;;;9.80;3.30;;;;;;;1.05;100.00;100635.66;5021180;28;20387;-70
2021/04/08 03:12:06;;;;;;;8.57;4.55;;;;;;;1.04;100.00;100635.63;5028213;28;20452;-71
2021/04/08 03:14:39;;;;;;;8.43;4.03;;;;;;;1.10;100.00;100634.03;5045157;28;20078;-70
2021/04/08 03:17:06;;;;;;;10.47;3.53;;;;;;;1.04;100.00;100630.44;5043779;28;20066;-70
2021/04/08 03:19:33;;;;;;;9.30;4.10;;;;;;;1.07;100.00;100631.34;5017325;28;20048;-70
2021/04/08 03:21:59;;;;;;;8.90;3.00;;;;;;;1.05;100.00;100640.88;5010470;28;20099;-71
2021/04/08 03:24:27;;;;;;;8.97;4.20;;;;;;;1.03;100.00;100639.97;5026806;28;20110;-71
2021/04/08 03:26:55;;;;;;;8.80;3.43;;;;;;;0.99;100.00;100653.75;5010989;28;20044;-71
2021/04/08 03:29:21;;;;;;;9.63;3.50;;;;;;;1.03;100.00;100649.50;5027079;28;20133;-71
2021/04/08 03:31:47;;;;;;;12.73;4.10;;;;;;;0.98;100.00;100646.81;5028353;28;20025;-70
2021/04/08 03:34:14;;;;;;;13.43;3.90;;;;;;;0.99;100.00;100651.16;5060584;28;20049;-71
2021/04/08 03:36:41;;;;;;;12.20;4.10;;;;;;;0.99;100.00;100652.88;5045528;28;20037;-70
2021/04/08 03:39:08;;;;;;;8.63;3.70;;;;;;;1.04;100.00;100665.13;5044331;28;20048;-70
2021/04/08 03:41:38;;;;;;;6.80;3.23;;;;;;;0.95;100.00;100661.50;5028449;28;20037;-70
2021/04/08 03:44:08;;;;;;;15.87;4.20;;;;;;;0.91;100.00;100663.13;5026698;28;20036;-71
2021/04/08 03:46:36;;;;;;;7.93;4.07;;;;;;;0.92;100.00;100667.50;5044478;28;20045;-70
2021/04/08 03:49:04;;;;;;;9.10;3.50;;;;;;;0.90;100.00;100674.41;5044410;28;20587;-71
2021/04/08 03:51:30;;;;;;;13.53;4.27;;;;;;;0.95;100.00;100667.56;5044674;28;20575;-71
2021/04/08 03:53:57;;;;;;;8.70;3.30;;;;;;;0.92;100.00;100670.09;5041585;28;20036;-70
2021/04/08 03:56:24;;;;;;;8.93;3.47;;;;;;;0.92;100.00;100667.50;5012083;28;20049;-70
2021/04/08 03:58:52;;;;;;;9.20;3.90;;;;;;;0.96;100.00;100678.84;5043340;28;20124;-71
2021/04/08 04:01:19;;;;;;;10.47;3.23;;;;;;;0.94;100.00;100677.94;5027669;28;20069;-70
2021/04/08 04:03:46;;;;;;;14.90;3.70;;;;;;;0.91;100.00;100680.47;5011739;28;20412;-71
2021/04/08 04:06:12;;;;;;;11.53;3.60;;;;;;;0.89;100.00;100675.25;5040251;23;20048;-72
2021/04/08 04:08:39;;;;;;;6.97;2.73;;;;;;;0.89;100.00;100688.25;5051768;28;20416;-73
2021/04/08 04:11:06;;;;;;;9.70;3.47;;;;;;;0.94;100.00;100689.22;5084589;28;20485;-72
2021/04/08 04:13:33;;;;;;;9.57;4.00;;;;;;;0.95;100.00;100690.97;5067836;28;20040;-73
2021/04/08 04:16:00;;;;;;;9.33;3.47;;;;;;;0.89;100.00;100688.25;5068066;28;20105;-73
2021/04/08 04:18:26;;;;;;;12.80;3.17;;;;;;;0.89;100.00;100684.78;5067595;28;20462;-73
2021/04/08 04:20:52;;;;;;;14.23;3.47;;;;;;;0.88;100.00;100698.63;5069727;28;20512;-73
2021/04/08 04:23:21;;;;;;;11.03;3.27;;;;;;;0.92;100.00;100697.81;5065283;28;20044;-72
2021/04/08 04:25:47;;;;;;;12.57;3.87;;;;;;;0.92;100.00;100703.03;5086496;28;20123;-72
2021/04/08 04:28:13;;;;;;;10.40;3.63;;;;;;;1.00;100.00;100712.72;5071559;28;20044;-72
2021/04/08 04:30:39;;;;;;;13.53;3.60;;;;;;;0.90;100.00;100716.00;5087224;28;20446;-72
2021/04/08 04:33:06;;;;;;;7.80;2.80;;;;;;;0.90;100.00;100717.72;5071697;28;20093;-72
2021/04/08 04:35:32;;;;;;;12.10;3.83;;;;;;;0.91;100.00;100724.69;5088226;28;20044;-73
2021/04/08 04:37:58;;;;;;;12.27;3.30;;;;;;;0.89;100.00;100729.00;5089065;28;20530;-73
2021/04/08 04:40:24;;;;;;;10.07;4.40;;;;;;;0.94;100.00;100733.44;5070907;28;20040;-73
2021/04/08 04:42:50;;;;;;;13.03;3.73;;;;;;;0.97;100.00;100736.09;5069009;28;20032;-72
2021/04/08 04:45:16;;;;;;;7.27;3.63;;;;;;;1.01;100.00;100735.31;5088920;28;20654;-72
2021/04/08 04:47:43;;;;;;;10.37;5.20;;;;;;;0.99;100.00;100739.59;5071115;28;20044;-72
2021/04/08 04:50:11;;;;;;;16.37;6.70;;;;;;;0.99;100.00;100744.78;5089677;28;20762;-73
2021/04/08 04:52:38;;;;;;;14.87;4.10;;;;;;;0.97;100.00;100750.81;5054322;28;20040;-73
2021/04/08 04:55:05;;;;;;;9.07;3.73;;;;;;;0.99;100.00;100756.94;5070972;28;20047;-73
2021/04/08 04:57:31;;;;;;;8.70;4.63;;;;;;;1.03;100.00;100753.56;5079863;28;20044;-73
2021/04/08 04:59:57;;;;;;;11.30;4.57;;;;;;;1.06;100.00;100754.47;5084481;28;20113;-74
2021/04/08 05:02:24;;;;;;;14.03;4.57;;;;;;;1.07;100.00;100758.84;5033751;28;20105;-73
2021/04/08 05:04:50;;;;;;;9.30;4.27;;;;;;;1.07;100.00;100763.16;5070872;28;20040;-73
2021/04/08 05:07:17;;;;;;;19.23;4.03;;;;;;;1.09;100.00;100762.38;5056171;28;20044;-73
2021/04/08 05:09:43;;;;;;;9.57;3.77;;;;;;;1.16;100.00;100767.66;5070562;28;20051;-73
2021/04/08 05:12:09;;;;;;;17.13;5.63;;;;;;;1.12;99.86;100770.22;5054910;28;20052;-73
2021/04/08 05:14:35;;;;;;;12.27;3.87;;;;;;;1.18;99.03;100777.28;5070355;28;20036;-73
2021/04/08 05:17:01;;;;;;;7.10;3.00;;;;;;;1.23;98.68;100769.53;5086623;28;20068;-73
2021/04/08 05:19:28;;;;;;;12.63;3.97;;;;;;;1.24;98.21;100782.56;5068400;28;20439;-73
2021/04/08 05:21:54;;;;;;;13.30;4.00;;;;;;;1.27;98.39;100782.66;5062565;28;20098;-72
2021/04/08 05:24:20;;;;;;;14.93;3.93;;;;;;;1.33;98.19;100787.09;5086888;28;20089;-73
2021/04/08 05:26:46;;;;;;;12.40;4.03;;;;;;;1.35;98.07;100795.81;5071200;28;20048;-73
2021/04/08 05:29:12;;;;;;;13.40;3.40;;;;;;;1.35;97.54;100796.69;5088524;28;20044;-73
2021/04/08 05:31:38;;;;;;;11.20;3.87;;;;;;;1.40;97.55;100784.63;5071321;28;20039;-73
2021/04/08 05:34:05;;;;;;;13.53;4.47;;;;;;;1.44;97.35;100798.59;5067612;28;20378;-73
2021/04/08 05:36:31;;;;;;;14.77;4.07;;;;;;;1.48;95.74;100822.94;5053403;28;20040;-73
2021/04/08 05:38:57;;;;;;;8.87;4.13;;;;;;;1.51;96.27;100813.44;5068562;28;20097;-74
2021/04/08 05:41:23;;;;;;;8.30;3.80;;;;;;;1.52;96.26;100820.44;5070129;28;20036;-73
2021/04/08 05:43:49;;;;;;;12.87;4.17;;;;;;;1.53;96.57;100830.00;5064571;28;20055;-71
2021/04/08 05:46:16;;;;;;;10.17;3.50;;;;;;;1.52;95.47;100841.28;5069069;28;20044;-71
2021/04/08 05:48:42;;;;;;;14.57;3.80;;;;;;;1.50;94.48;100847.28;5053376;28;20623;-72
2021/04/08 05:51:09;;;;;;;8.33;3.23;;;;;;;1.56;94.68;100848.28;5062197;28;20037;-70
2021/04/08 05:53:36;;;;;;;13.37;4.27;;;;;;;1.56;94.79;100848.28;5065600;28;20032;-70
2021/04/08 05:56:02;;;;;;;10.03;3.37;;;;;;;1.68;94.97;100847.63;5067950;28;20048;-70
2021/04/08 05:58:28;;;;;;;10.57;3.43;;;;;;;1.69;95.48;100850.28;5069704;28;20069;-73
2021/04/08 06:00:55;;;;;;;12.03;3.00;;;;;;;1.71;93.78;100863.31;5070674;28;20060;-72
2021/04/08 06:03:22;;;;;;;12.23;3.90;;;;;;;1.60;93.72;100865.72;5052934;28;20056;-73
2021/04/08 06:05:48;;;;;;;11.70;4.23;;;;;;;1.66;93.66;100876.25;5068373;28;20052;-73
2021/04/08 06:08:15;;;;;;;7.47;2.90;;;;;;;1.73;92.47;100873.75;5083029;28;20089;-72
2021/04/08 06:10:41;;;;;;;11.37;3.80;;;;;;;1.62;93.52;100878.78;5050142;28;20044;-73
2021/04/08 06:13:07;;;;;;;8.77;4.23;;;;;;;1.68;93.51;100879.78;5040967;28;20040;-73
2021/04/08 06:15:33;;;;;;;14.80;3.97;;;;;;;1.67;93.03;100879.72;5043912;28;20090;-73
2021/04/08 06:17:59;;;;;;;9.90;3.30;;;;;;;1.62;93.14;100892.66;5050322;28;20106;-73
2021/04/08 06:20:25;;;;;;;5.77;2.80;;;;;;;1.63;93.32;100889.22;5049703;28;20040;-73
2021/04/08 06:23:03;;;;;;;16.43;4.17;;;;;;;1.56;92.36;100883.84;5072563;28;20059;-73
2021/04/08 06:25:29;;;;;;;10.10;3.10;;;;;;;1.62;92.53;100894.41;5053379;28;20096;-73
2021/04/08 06:27:55;;;;;;;10.20;3.90;;;;;;;1.63;92.96;100894.44;5088027;28;20425;-73
2021/04/08 06:30:21;;;;;;;9.63;4.07;;;;;;;1.69;92.66;100899.75;5087345;28;20507;-73
2021/04/08 06:32:51;;;;;;;11.40;3.33;;;;;;;1.78;92.23;100903.38;5088373;28;20040;-70
2021/04/08 06:35:19;;;;;;;11.27;3.40;;;;;;;1.84;92.05;100901.75;5069139;28;20501;-70
2021/04/08 06:37:46;;;;;;;8.27;2.83;;;;;;;1.88;91.04;100905.31;5051387;28;20097;-70
2021/04/08 06:40:13;;;;;;;12.40;3.00;;;;;;;1.85;91.60;100905.22;5038827;28;20052;-70
2021/04/08 06:42:41;;;;;;;13.83;3.10;;;;;;;1.90;92.10;100919.25;5052573;28;20062;-70
2021/04/08 06:45:08;;;;;;;7.80;2.70;;;;;;;1.93;90.81;100925.41;5069895;28;20047;-71
2021/04/08 06:47:37;;;;;;;8.70;2.50;;;;;;;2.04;89.46;100914.28;5069848;28;20416;-70
2021/04/08 06:50:06;;;;;;;7.37;2.63;;;;;;;2.07;89.39;100929.97;5087940;28;20063;-73
2021/04/08 06:52:32;;;;;;;10.63;2.97;;;;;;;2.13;88.88;100938.78;5087605;28;20032;-73
2021/04/08 06:54:58;;;;;;;6.77;2.43;;;;;;;2.20;90.65;100942.38;5053424;28;20066;-73
2021/04/08 06:57:26;;;;;;;17.73;3.23;;;;;;;2.24;89.51;100945.06;5052028;28;20501;-73
2021/04/08 06:59:52;;;;;;;10.57;2.57;;;;;;;2.35;87.47;100945.25;5049412;28;20040;-73
2021/04/08 07:02:20;;;;;;;8.00;2.30;;;;;;;2.37;87.16;100947.91;5057699;28;20109;-73
2021/04/08 07:04:46;;;;;;;9.27;2.20;;;;;;;2.36;87.79;100957.44;5065291;28;20048;-70
2021/04/08 07:07:16;;;;;;;10.60;3.27;;;;;;;2.37;87.67;100960.94;5060792;28;20039;-70
2021/04/08 07:09:43;;;;;;;6.40;2.23;;;;;;;2.50;86.54;100963.75;5067481;28;20047;-70
2021/04/08 07:12:11;;;;;;;11.80;3.43;;;;;;;2.63;87.35;100970.09;5042431;28;20170;-70
2021/04/08 07:14:37;;;;;;;10.53;2.83;;;;;;;2.90;86.74;100968.75;5046897;28;20086;-68
2021/04/08 07:17:09;;;;;;;9.37;2.37;;;;;;;3.09;85.60;100968.19;5038028;28;20824;-69
2021/04/08 07:19:36;;;;;;;8.70;2.50;;;;;;;3.13;84.83;100969.13;5068829;28;20043;-73
2021/04/08 07:22:02;;;;;;;11.50;2.83;;;;;;;3.15;84.49;100980.44;5067720;28;20124;-74
2021/04/08 07:24:28;;;;;;;6.03;2.50;;;;;;;3.06;84.12;100983.81;5049210;28;20047;-70
2021/04/08 07:27:02;;;;;;;7.17;2.53;;;;;;;3.05;82.30;100990.75;5045169;28;20063;-71
2021/04/08 07:29:40;;;;;;;10.75;2.40;;;;;;;2.91;82.54;100991.38;5058350;28;20048;-73
2021/04/08 07:32:11;;;;;;;6.97;2.30;;;;;;;2.91;82.29;101002.72;5085228;28;20779;-74
2021/04/08 07:34:44;;;;;;;14.37;3.37;;;;;;;2.78;84.06;101011.22;5086242;28;20105;-70
2021/04/08 07:37:11;;;;;;;8.47;2.63;;;;;;;2.77;83.67;101006.81;5044408;28;20105;-69
2021/04/08 07:39:43;;;;;;;8.63;2.27;;;;;;;2.87;83.07;101018.31;5057164;28;20036;-68
2021/04/08 07:42:13;;;;;;;9.20;2.60;;;;;;;3.00;82.63;101018.50;5080318;28;20056;-71
2021/04/08 07:44:44;;;;;;;6.53;2.40;;;;;;;3.19;83.15;101018.78;5085103;28;20105;-71
2021/04/08 07:47:40;;;;;;;17.03;4.07;;;;;;;3.30;81.35;101025.94;5068749;28;20032;-69
2021/04/08 07:50:06;;;;;;;10.37;3.03;;;;;;;3.19;80.01;101027.50;5049882;28;20109;-72
2021/04/08 07:52:37;;;;;;;7.90;2.43;;;;;;;3.23;80.85;101036.28;5051649;28;20044;-70
2021/04/08 07:55:15;;;;;;;8.30;3.27;;;;;;;3.30;82.03;101038.13;5067834;28;20089;-69
2021/04/08 07:57:53;;;;;;;8.00;3.17;;;;;;;3.54;79.93;101045.44;5088654;28;20028;-69
2021/04/08 08:00:36;;;;;;;8.87;3.13;;;;;;;3.72;80.68;101035.25;5071297;28;20044;-69
2021/04/08 08:03:07;;;;;;;7.53;3.17;;;;;;;4.02;78.82;101044.31;5072006;28;20043;-71
2021/04/08 08:05:36;;;;;;;26.17;3.87;;;;;;;4.19;78.46;101037.56;5081041;28;20039;-71
2021/04/08 08:08:19;;;;;;;10.40;3.03;;;;;;;4.32;79.13;101052.53;5068204;28;20036;-70
2021/04/08 08:11:04;;;;;;;12.17;3.40;;;;;;;3.85;77.01;101059.78;5059609;28;20036;-71
2021/04/08 08:13:36;;;;;;;6.82;2.13;;;;;;;4.28;77.84;101061.19;5031792;28;20040;-72
2021/04/08 08:16:04;;;;;;;7.43;3.03;;;;;;;4.61;74.89;101065.03;5056389;28;20032;-69
2021/04/08 08:18:41;;;;;;;6.33;2.53;;;;;;;4.91;74.19;101061.84;5071407;28;20046;-69
2021/04/08 08:21:17;;;;;;;8.27;2.73;;;;;;;4.89;71.98;101067.09;5073809;28;20041;-70
2021/04/08 08:23:46;;;;;;;;;;;;;;;4.82;71.64;101067.00;5060885;28;20071;-69
2021/04/08 08:26:34;;;;;;;5.67;3.00;;;;;;;5.14;72.13;101069.91;5064884;28;19927;-69
2021/04/08 08:29:22;;;;;;;5.73;2.40;;;;;;;5.07;71.57;101082.94;5067330;28;20055;-72
2021/04/08 08:31:59;;;;;;;8.27;2.63;;;;;;;5.29;71.88;101081.38;5060831;28;20101;-72
2021/04/08 08:34:32;;;;;;;4.37;1.60;;;;;;;5.53;68.34;101093.78;5069701;28;20028;-71
2021/04/08 08:37:03;;;;;;;12.20;2.33;;;;;;;5.79;64.52;101095.69;5070468;28;20048;-72
2021/04/08 08:39:38;;;;;;;7.37;2.80;;;;;;;5.76;62.88;101100.94;5069796;28;20036;-69
2021/04/08 08:42:08;;;;;;;6.17;1.93;;;;;;;6.08;64.13;101107.28;5068051;28;20044;-69
2021/04/08 08:44:34;;;;;;;6.23;2.03;;;;;;;6.16;63.10;101112.56;5068554;28;20101;-71
2021/04/08 08:47:08;;;;;;;5.53;2.20;;;;;;;6.13;62.13;101113.41;5068853;28;20461;-71
2021/04/08 08:50:03;;;;;;;5.43;1.80;;;;;;;6.20;63.41;101123.06;5069181;28;20039;-72
2021/04/08 08:52:36;;;;;;;4.43;2.13;;;;;;;5.69;60.32;101130.59;5067223;28;20055;-70
2021/04/08 08:55:23;;;;;;;15.70;3.60;;;;;;;5.52;63.33;101139.19;5087735;28;20471;-71
2021/04/08 08:57:54;;;;;;;4.77;2.13;;;;;;;5.75;63.80;101136.75;5069684;28;20040;-71
2021/04/08 09:00:24;;;;;;;7.40;2.20;;;;;;;5.88;61.02;101142.94;5053129;28;20485;-70
2021/04/08 09:02:51;;;;;;;7.33;2.40;;;;;;;6.00;64.23;101148.31;5067989;28;20093;-71
2021/04/08 09:05:20;;;;;;;4.90;2.03;;;;;;;6.11;63.80;101143.13;5070270;28;20457;-72
2021/04/08 09:07:51;;;;;;;7.43;1.80;;;;;;;6.43;62.85;101141.53;5046729;28;20055;-72
2021/04/08 09:10:40;;;;;;;4.60;1.40;;;;;;;7.31;62.27;101138.25;5071524;28;20097;-71
2021/04/08 09:13:07;;;;;;;6.70;1.67;;;;;;;7.14;59.29;101144.34;5085857;28;20040;-69
2021/04/08 09:15:37;;;;;;;4.87;1.83;;;;;;;7.15;58.50;101149.63;5063011;28;20056;-69
2021/04/08 09:18:08;;;;;;;5.03;1.57;;;;;;;7.65;57.21;101143.50;5063080;28;20032;-70
2021/04/08 09:20:35;;;;;;;7.07;1.93;;;;;;;8.06;55.63;101143.41;5061797;28;21754;-72
2021/04/08 09:23:08;;;;;;;8.07;2.35;;;;;;;8.73;58.70;101139.69;5069078;28;20616;-71
2021/04/08 09:25:42;;;;;;;7.38;1.95;;;;;;;10.04;52.69;101138.63;5052849;28;20048;-72
2021/04/08 09:28:09;;;;;;;;;;;;;;;10.13;52.01;101149.09;5047488;28;20036;-72
2021/04/08 09:31:07;;;;;;;4.15;1.85;;;;;;;9.67;49.53;101139.88;5040192;28;19920;-72
2021/04/08 09:33:43;;;;;;;6.95;1.88;;;;;;;8.57;50.14;101148.53;5055234;28;20506;-72
2021/04/08 09:36:18;;;;;;;7.47;1.85;;;;;;;7.39;53.71;101153.13;5083062;28;20037;-70
2021/04/08 09:38:44;;;;;;;6.07;2.25;;;;;;;7.11;56.66;101163.63;5087210;28;20036;-70
2021/04/08 09:41:10;;;;;;;5.23;2.20;;;;;;;7.15;53.80;101167.13;5067709;28;20500;-70
2021/04/08 09:43:37;;;;;;;5.20;1.53;;;;;;;7.02;54.16;101168.84;5063386;28;20099;-70
2021/04/08 09:46:06;;;;;;;7.57;1.90;;;;;;;7.27;53.72;101162.75;5067084;28;20048;-69
2021/04/08 09:48:49;;;;;;;12.60;2.10;;;;;;;7.61;54.27;101168.03;5051297;28;20070;-70
2021/04/08 09:51:36;;;;;;;7.22;2.67;;;;;;;7.55;51.81;101162.75;5087157;28;20043;-70
2021/04/08 09:54:13;;;;;;;3.97;1.43;;;;;;;7.38;52.09;101169.78;5066886;28;20040;-72
2021/04/08 09:56:49;;;;;;;5.07;1.57;;;;;;;8.02;55.19;101175.00;5069397;28;20052;-70
2021/04/08 09:59:18;;;;;;;4.63;1.55;;;;;;;8.83;50.56;101173.03;5068620;28;20479;-70
2021/04/08 10:01:45;;;;;;;5.05;1.70;;;;;;;9.64;48.89;101180.34;5050591;28;20052;-70
2021/04/08 10:04:23;;;;;;;6.25;2.05;;;;;;;10.30;48.44;101159.50;5066123;28;20040;-70
2021/04/08 10:07:05;;;;;;;6.10;1.73;;;;;;;10.57;46.79;101174.16;5066342;28;20036;-70
2021/04/08 10:09:31;;;;;;;5.15;1.30;;;;;;;9.61;44.58;101168.97;5087039;28;20050;-70
2021/04/08 10:11:58;;;;;;;4.32;1.60;;;;;;;10.41;47.44;101170.81;5062900;28;20723;-70
2021/04/08 10:14:30;;;;;;;4.07;1.40;;;;;;;10.43;45.87;101173.47;5051167;28;20134;-71
2021/04/08 10:17:02;;;;;;;5.85;2.13;;;;;;;10.24;46.02;101177.19;5083038;28;20035;-71
2021/04/08 10:19:30;;;;;;;5.40;2.00;;;;;;;9.63;44.97;101186.53;5084827;28;20094;-69
2021/04/08 10:21:56;;;;;;;5.07;1.50;;;;;;;9.02;46.12;101179.06;5046938;28;20048;-69
2021/04/08 10:24:23;;;;;;;4.70;1.63;;;;;;;9.58;48.38;101185.69;5051868;28;20078;-70
2021/04/08 10:26:49;;;;;;;5.57;1.70;;;;;;;9.30;45.86;101195.56;5068668;28;20040;-69
2021/04/08 10:29:29;;;;;;;3.22;1.50;;;;;;;8.13;46.33;101196.91;5086559;28;20040;-70
2021/04/08 10:31:55;;;;;;;4.28;1.60;;;;;;;9.20;48.90;101210.56;5069767;28;20040;-70
2021/04/08 10:34:22;;;;;;;3.42;1.60;;;;;;;10.94;47.33;101190.44;5087680;28;20184;-70
2021/04/08 10:36:55;;;;;;;4.00;1.60;;;;;;;12.12;41.95;101204.47;5063048;28;20512;-70
2021/04/08 10:39:27;;;;;;;3.42;1.25;;;;;;;11.50;37.61;101185.19;5087048;28;20039;-69
2021/04/08 10:42:04;;;;;;;4.88;1.80;;;;;;;11.04;39.01;101192.94;5068092;28;20039;-70
2021/04/08 10:44:50;;;;;;;3.08;1.10;;;;;;;10.64;42.57;101199.59;5068021;28;20044;-70
2021/04/08 10:47:22;;;;;;;2.65;1.58;;;;;;;11.29;39.85;101204.91;5054979;28;20470;-70
2021/04/08 10:49:51;;;;;;;5.47;1.42;;;;;;;11.24;40.86;101204.97;5054662;28;20051;-70
2021/04/08 10:52:18;;;;;;;3.25;1.60;;;;;;;11.62;41.30;101207.94;5032766;28;20032;-69
2021/04/08 10:54:50;;;;;;;3.50;1.60;;;;;;;11.34;38.11;101192.47;5044068;28;20071;-72
2021/04/08 10:57:16;;;;;;;4.20;1.75;;;;;;;10.92;42.36;101205.41;5067932;28;20531;-71
2021/04/08 10:59:44;;;;;;;2.53;1.30;;;;;;;10.67;41.55;101210.13;5101724;22;20121;-70
2021/04/08 11:02:33;;;;;;;4.65;1.70;;;;;;;10.45;42.28;101221.84;5052251;28;20044;-74
2021/04/08 11:05:05;;;;;;;3.83;1.63;;;;;;;9.24;40.73;101225.47;5083510;28;20024;-74
2021/04/08 11:07:39;;;;;;;4.72;1.65;;;;;;;9.64;41.85;101219.06;5051640;28;20062;-73
2021/04/08 11:10:14;;;;;;;4.97;1.88;;;;;;;9.56;44.15;101221.75;5037018;28;20036;-73
2021/04/08 11:12:41;;;;;;;2.33;1.20;;;;;;;10.01;44.50;101225.78;5038382;28;20066;-73
2021/04/08 11:15:10;;;;;;;2.10;1.00;;;;;;;11.21;42.97;101225.31;5068541;28;20039;-73
2021/04/08 11:17:41;;;;;;;4.45;1.60;;;;;;;10.54;41.91;101234.97;5050689;28;20044;-73
2021/04/08 11:20:08;;;;;;;3.30;1.52;;;;;;;10.12;40.39;101237.13;5074170;28;20036;-73
2021/04/08 11:22:35;;;;;;;4.20;1.38;;;;;;;9.57;44.04;101234.06;5060025;28;20039;-74
2021/04/08 11:25:07;;;;;;;4.72;1.98;;;;;;;10.69;41.02;101224.22;5050358;28;20135;-73
2021/04/08 11:27:43;;;;;;;3.13;1.23;;;;;;;11.32;40.91;101223.38;5080768;28;20500;-74
2021/04/08 11:30:12;;;;;;;5.18;1.80;;;;;;;10.46;41.21;101228.88;5075713;28;20037;-74
2021/04/08 11:32:46;;;;;;;3.50;1.25;;;;;;;9.29;43.10;101250.06;5065178;28;20058;-73
2021/04/08 11:35:25;;;;;;;;;;;;;;;8.69;47.32;101252.09;5049159;28;20067;-74
2021/04/08 11:38:10;;;;;;;4.88;1.60;;;;;;;8.24;46.46;101266.22;5072738;28;19924;-72
2021/04/08 11:40:43;;;;;;;3.17;1.30;;;;;;;8.26;47.57;101260.94;5046642;28;20043;-73